createdAt,value
2017-01-20T00:00:14.757Z,3.69
2017-01-20T00:01:14.768Z,3.73
2017-01-20T00:02:14.780Z,3.66
2017-01-20T00:03:14.790Z,3.62
2017-01-20T00:04:14.794Z,3.62
2017-01-20T00:05:14.808Z,3.74
2017-01-20T00:06:14.813Z,3.7
2017-01-20T00:07:14.836Z,3.7
2017-01-20T00:08:14.837Z,3.68
2017-01-20T00:09:14.842Z,3.7
2017-01-20T00:10:14.853Z,3.7
2017-01-20T00:11:14.870Z,3.76
2017-01-20T00:12:14.873Z,3.68
2017-01-20T00:13:14.886Z,3.73
2017-01-20T00:14:14.908Z,3.76
2017-01-20T00:15:14.902Z,3.69
2017-01-20T00:16:14.915Z,3.63
2017-01-20T00:17:14.931Z,3.65
2017-01-20T00:18:14.942Z,3.74
2017-01-20T00:19:14.951Z,3.68
2017-01-20T00:20:14.957Z,3.6
2017-01-20T00:21:14.971Z,3.76
2017-01-20T00:22:14.975Z,3.76
2017-01-20T00:23:14.983Z,3.68
2017-01-20T00:24:14.995Z,3.66
2017-01-20T00:25:15.006Z,3.68
2017-01-20T00:26:15.011Z,3.73
2017-01-20T00:27:15.025Z,3.76
2017-01-20T00:28:15.030Z,3.73
2017-01-20T00:29:15.043Z,3.77
2017-01-20T00:30:15.053Z,3.7
2017-01-20T00:31:15.066Z,3.76
2017-01-20T00:32:15.073Z,3.7
2017-01-20T00:33:15.082Z,3.7
2017-01-20T00:34:15.093Z,3.8
2017-01-20T00:35:15.111Z,3.66
2017-01-20T00:36:15.117Z,3.74
2017-01-20T00:37:15.121Z,3.7
2017-01-20T00:38:15.131Z,3.73
2017-01-20T00:39:15.143Z,3.7
2017-01-20T00:40:15.161Z,3.7
2017-01-20T00:41:15.160Z,3.7
2017-01-20T00:42:15.168Z,3.73
2017-01-20T00:43:15.191Z,3.77
2017-01-20T00:44:15.198Z,3.7
2017-01-20T00:45:15.206Z,3.78
2017-01-20T00:46:15.213Z,3.84
2017-01-20T00:47:15.237Z,3.78
2017-01-20T00:48:15.233Z,3.66
2017-01-20T00:49:15.244Z,3.7
2017-01-20T00:50:15.262Z,3.7
2017-01-20T00:51:15.256Z,3.78
2017-01-20T00:52:15.272Z,3.74
2017-01-20T00:53:15.288Z,3.69
2017-01-20T00:54:15.293Z,3.73
2017-01-20T00:55:15.296Z,3.81
2017-01-20T00:56:15.316Z,3.8
2017-01-20T00:57:15.317Z,3.77
2017-01-20T00:58:15.332Z,3.77
2017-01-20T00:59:15.337Z,3.84
2017-01-20T01:00:15.348Z,3.8
2017-01-20T01:01:15.373Z,3.86
2017-01-20T01:02:15.372Z,3.81
2017-01-20T01:03:15.379Z,3.84
2017-01-20T01:04:15.390Z,3.77
2017-01-20T01:05:15.402Z,3.86
2017-01-20T01:06:15.411Z,3.8
2017-01-20T01:07:15.419Z,3.8
2017-01-20T01:08:15.429Z,3.78
2017-01-20T01:09:15.441Z,3.83
2017-01-20T01:10:15.453Z,3.78
2017-01-20T01:11:15.464Z,3.81
2017-01-20T01:12:15.471Z,3.8
2017-01-20T01:13:15.476Z,3.81
2017-01-20T01:14:15.488Z,3.78
2017-01-20T01:15:15.494Z,3.83
2017-01-20T01:16:15.518Z,3.77
2017-01-20T01:17:15.515Z,3.8
2017-01-20T01:18:15.530Z,3.86
2017-01-20T01:19:15.536Z,3.86
2017-01-20T01:20:15.543Z,3.84
2017-01-20T01:21:15.555Z,3.81
2017-01-20T01:22:15.563Z,3.8
2017-01-20T01:23:15.572Z,3.8
2017-01-20T01:24:15.590Z,3.77
2017-01-20T01:25:15.598Z,3.83
2017-01-20T01:26:15.602Z,3.78
2017-01-20T01:27:15.617Z,3.84
2017-01-20T01:28:15.627Z,3.86
2017-01-20T01:29:15.637Z,3.84
2017-01-20T01:30:15.643Z,3.84
2017-01-20T01:31:15.654Z,3.81
2017-01-20T01:32:15.661Z,3.78
2017-01-20T01:33:15.672Z,3.78
2017-01-20T01:34:15.680Z,3.83
2017-01-20T01:35:15.702Z,3.81
2017-01-20T01:36:15.721Z,3.76
2017-01-20T01:37:15.720Z,3.68
2017-01-20T01:38:15.727Z,3.77
2017-01-20T01:39:15.732Z,3.8
2017-01-20T01:40:15.742Z,3.81
2017-01-20T01:41:15.756Z,3.74
2017-01-20T01:42:15.763Z,3.77
2017-01-20T01:43:15.772Z,3.81
2017-01-20T01:44:15.778Z,3.86
2017-01-20T01:45:15.789Z,3.77
2017-01-20T01:46:15.803Z,3.8
2017-01-20T01:47:15.811Z,3.78
2017-01-20T01:48:15.826Z,3.81
2017-01-20T01:49:15.834Z,3.8
2017-01-20T01:50:15.840Z,3.78
2017-01-20T01:51:15.854Z,3.81
2017-01-20T01:52:15.860Z,3.8
2017-01-20T01:53:15.877Z,3.86
2017-01-20T01:54:15.882Z,3.78
2017-01-20T01:55:15.894Z,3.77
2017-01-20T01:56:15.911Z,3.8
2017-01-20T01:57:15.910Z,3.83
2017-01-20T01:58:15.934Z,3.77
2017-01-20T01:59:15.946Z,3.74
2017-01-20T02:00:15.943Z,3.86
2017-01-20T02:01:15.952Z,3.8
2017-01-20T02:02:15.972Z,3.78
2017-01-20T02:03:15.980Z,3.84
2017-01-20T02:04:15.979Z,3.86
2017-01-20T02:05:15.991Z,3.8
2017-01-20T02:06:16.005Z,3.78
2017-01-20T02:07:16.075Z,3.77
2017-01-20T02:08:16.024Z,3.78
2017-01-20T02:09:16.034Z,3.84
2017-01-20T02:10:16.040Z,3.8
2017-01-20T02:11:16.058Z,3.86
2017-01-20T02:12:16.059Z,3.8
2017-01-20T02:13:16.077Z,3.8
2017-01-20T02:14:16.081Z,3.83
2017-01-20T02:15:16.086Z,3.86
2017-01-20T02:16:16.103Z,3.83
2017-01-20T02:17:16.116Z,3.86
2017-01-20T02:18:16.125Z,3.8
2017-01-20T02:19:16.130Z,3.83
2017-01-20T02:20:16.145Z,3.81
2017-01-20T02:21:16.214Z,3.83
2017-01-20T02:22:16.159Z,3.78
2017-01-20T02:23:16.173Z,3.8
2017-01-20T02:24:16.182Z,3.8
2017-01-20T02:25:16.192Z,3.81
2017-01-20T02:26:16.257Z,3.77
2017-01-20T02:27:16.207Z,3.8
2017-01-20T02:28:16.221Z,3.83
2017-01-20T02:29:16.238Z,3.83
2017-01-20T02:30:16.237Z,3.86
2017-01-20T02:31:16.250Z,3.83
2017-01-20T02:32:16.261Z,3.77
2017-01-20T02:33:16.270Z,3.91
2017-01-20T02:34:16.277Z,3.84
2017-01-20T02:35:16.290Z,3.84
2017-01-20T02:36:16.303Z,3.83
2017-01-20T02:37:16.314Z,3.77
2017-01-20T02:38:16.317Z,3.76
2017-01-20T02:39:16.329Z,3.8
2017-01-20T02:40:16.339Z,3.83
2017-01-20T02:41:16.348Z,3.78
2017-01-20T02:42:16.361Z,3.83
2017-01-20T02:43:16.368Z,3.86
2017-01-20T02:44:16.382Z,3.84
2017-01-20T02:45:16.384Z,3.78
2017-01-20T02:46:16.398Z,3.78
2017-01-20T02:47:16.404Z,3.8
2017-01-20T02:48:16.423Z,3.87
2017-01-20T02:49:16.430Z,3.77
2017-01-20T02:50:16.434Z,3.86
2017-01-20T02:51:16.450Z,3.84
2017-01-20T02:52:16.454Z,3.83
2017-01-20T02:53:16.465Z,3.83
2017-01-20T02:54:16.476Z,3.84
2017-01-20T02:55:16.490Z,3.86
2017-01-20T02:56:16.489Z,3.88
2017-01-20T02:57:16.505Z,3.81
2017-01-20T02:58:16.522Z,3.77
2017-01-20T02:59:16.524Z,3.8
2017-01-20T03:00:16.536Z,3.77
2017-01-20T03:01:16.551Z,3.88
2017-01-20T03:02:16.558Z,3.84
2017-01-20T03:03:16.566Z,3.84
2017-01-20T03:04:16.580Z,3.84
2017-01-20T03:05:16.584Z,3.77
2017-01-20T03:06:16.597Z,3.84
2017-01-20T03:07:16.612Z,3.83
2017-01-20T03:08:16.621Z,3.86
2017-01-20T03:09:16.625Z,3.84
2017-01-20T03:10:16.642Z,3.8
2017-01-20T03:11:16.640Z,3.78
2017-01-20T03:12:16.653Z,3.87
2017-01-20T03:13:16.672Z,3.86
2017-01-20T03:14:16.669Z,3.81
2017-01-20T03:15:16.686Z,3.8
2017-01-20T03:16:16.690Z,3.83
2017-01-20T03:17:16.709Z,3.78
2017-01-20T03:18:16.713Z,3.77
2017-01-20T03:19:16.749Z,3.8
2017-01-20T03:20:16.731Z,3.83
2017-01-20T03:21:16.742Z,3.8
2017-01-20T03:22:16.754Z,3.8
2017-01-20T03:23:16.765Z,3.86
2017-01-20T03:24:16.772Z,3.8
2017-01-20T03:25:16.783Z,3.8
2017-01-20T03:26:16.795Z,3.77
2017-01-20T03:27:16.804Z,3.8
2017-01-20T03:28:16.812Z,3.8
2017-01-20T03:29:16.832Z,3.8
2017-01-20T03:30:16.837Z,3.78
2017-01-20T03:31:16.842Z,3.86
2017-01-20T03:32:16.856Z,3.76
2017-01-20T03:33:16.859Z,3.78
2017-01-20T03:34:16.876Z,3.77
2017-01-20T03:35:16.887Z,3.86
2017-01-20T03:36:16.895Z,3.8
2017-01-20T03:37:16.901Z,3.81
2017-01-20T03:38:16.911Z,3.81
2017-01-20T03:39:16.928Z,3.84
2017-01-20T03:40:16.930Z,3.83
2017-01-20T03:41:16.950Z,3.88
2017-01-20T03:42:16.956Z,3.81
2017-01-20T03:43:17.389Z,3.77
2017-01-20T03:44:16.975Z,3.83
2017-01-20T03:45:16.981Z,3.84
2017-01-20T03:46:16.992Z,3.81
2017-01-20T03:47:16.999Z,3.91
2017-01-20T03:48:17.029Z,3.78
2017-01-20T03:49:17.023Z,3.8
2017-01-20T03:50:17.030Z,3.84
2017-01-20T03:51:17.045Z,3.81
2017-01-20T03:52:17.050Z,3.8
2017-01-20T03:53:17.062Z,3.78
2017-01-20T03:54:17.071Z,3.84
2017-01-20T03:55:17.085Z,3.78
2017-01-20T03:56:17.090Z,3.77
2017-01-20T03:57:17.504Z,3.78
2017-01-20T03:58:17.112Z,3.76
2017-01-20T03:59:17.122Z,3.84
2017-01-20T04:00:17.131Z,3.83
2017-01-20T04:01:17.140Z,3.83
2017-01-20T04:02:17.152Z,3.84
2017-01-20T04:03:17.163Z,3.86
2017-01-20T04:04:17.171Z,3.76
2017-01-20T04:05:17.182Z,3.81
2017-01-20T04:06:17.188Z,3.78
2017-01-20T04:07:17.201Z,3.86
2017-01-20T04:08:17.210Z,3.95
2017-01-20T04:09:17.223Z,3.77
2017-01-20T04:10:17.225Z,3.81
2017-01-20T04:11:17.239Z,3.8
2017-01-20T04:12:17.270Z,3.83
2017-01-20T04:13:17.260Z,3.81
2017-01-20T04:14:17.279Z,3.8
2017-01-20T04:15:17.282Z,3.84
2017-01-20T04:16:17.290Z,3.86
2017-01-20T04:17:17.300Z,3.83
2017-01-20T04:18:17.312Z,3.83
2017-01-20T04:19:17.325Z,3.81
2017-01-20T04:20:17.326Z,3.92
2017-01-20T04:21:17.333Z,3.83
2017-01-20T04:22:17.355Z,3.77
2017-01-20T04:23:17.364Z,3.88
2017-01-20T04:24:17.367Z,3.76
2017-01-20T04:25:17.379Z,3.87
2017-01-20T04:26:17.387Z,3.91
2017-01-20T04:27:17.398Z,3.83
2017-01-20T04:28:17.407Z,3.8
2017-01-20T04:29:17.427Z,3.92
2017-01-20T04:30:17.427Z,3.74
2017-01-20T04:31:17.433Z,3.8
2017-01-20T04:32:17.445Z,3.94
2017-01-20T04:33:17.455Z,3.78
2017-01-20T04:34:17.469Z,3.84
2017-01-20T04:35:17.475Z,3.96
2017-01-20T04:36:17.482Z,3.78
2017-01-20T04:37:17.498Z,3.81
2017-01-20T04:38:17.504Z,3.8
2017-01-20T04:39:17.513Z,3.8
2017-01-20T04:40:17.525Z,3.84
2017-01-20T04:41:17.533Z,3.84
2017-01-20T04:42:17.545Z,3.83
2017-01-20T04:43:17.554Z,3.87
2017-01-20T04:44:17.569Z,3.87
2017-01-20T04:45:17.580Z,3.94
2017-01-20T04:46:17.585Z,3.8
2017-01-20T04:47:17.595Z,3.81
2017-01-20T04:48:17.608Z,3.94
2017-01-20T04:49:17.623Z,3.84
2017-01-20T04:50:17.627Z,3.86
2017-01-20T04:51:17.636Z,3.8
2017-01-20T04:52:17.648Z,3.86
2017-01-20T04:53:17.666Z,3.77
2017-01-20T04:54:17.666Z,3.8
2017-01-20T04:55:17.676Z,3.78
2017-01-20T04:56:17.703Z,3.8
2017-01-20T04:57:17.698Z,3.81
2017-01-20T04:58:17.705Z,3.77
2017-01-20T04:59:17.714Z,3.88
2017-01-20T05:00:17.734Z,3.91
2017-01-20T05:01:17.743Z,3.81
2017-01-20T05:02:17.743Z,3.92
2017-01-20T05:03:17.757Z,3.83
2017-01-20T05:04:17.777Z,3.92
2017-01-20T05:05:17.770Z,3.83
2017-01-20T05:06:17.791Z,3.86
2017-01-20T05:07:17.789Z,3.88
2017-01-20T05:08:17.798Z,3.87
2017-01-20T05:09:17.821Z,3.83
2017-01-20T05:10:17.821Z,3.77
2017-01-20T05:11:17.840Z,3.86
2017-01-20T05:12:17.840Z,3.83
2017-01-20T05:13:17.860Z,3.87
2017-01-20T05:14:17.859Z,3.92
2017-01-20T05:15:17.868Z,3.88
2017-01-20T05:16:17.881Z,3.78
2017-01-20T05:17:17.889Z,3.92
2017-01-20T05:18:17.901Z,3.76
2017-01-20T05:19:17.909Z,3.87
2017-01-20T05:20:17.919Z,3.86
2017-01-20T05:21:17.931Z,3.81
2017-01-20T05:22:17.947Z,3.92
2017-01-20T05:23:17.954Z,3.92
2017-01-20T05:24:17.963Z,3.77
2017-01-20T05:25:17.977Z,3.81
2017-01-20T05:26:17.982Z,3.78
2017-01-20T05:27:17.991Z,3.8
2017-01-20T05:28:18.002Z,3.87
2017-01-20T05:29:18.016Z,3.78
2017-01-20T05:30:18.025Z,3.8
2017-01-20T05:31:18.034Z,3.92
2017-01-20T05:32:18.047Z,3.78
2017-01-20T05:33:18.050Z,3.94
2017-01-20T05:34:18.061Z,3.86
2017-01-20T05:35:18.070Z,3.8
2017-01-20T05:36:18.083Z,3.83
2017-01-20T05:37:18.097Z,3.92
2017-01-20T05:38:18.097Z,3.83
2017-01-20T05:39:18.118Z,3.76
2017-01-20T05:40:18.119Z,3.8
2017-01-20T05:41:18.127Z,3.76
2017-01-20T05:42:18.143Z,3.83
2017-01-20T05:43:18.152Z,3.92
2017-01-20T05:44:18.167Z,3.92
2017-01-20T05:45:18.170Z,3.84
2017-01-20T05:46:18.187Z,3.94
2017-01-20T05:47:18.192Z,3.84
2017-01-20T05:48:18.200Z,3.84
2017-01-20T05:49:18.207Z,3.78
2017-01-20T05:50:18.225Z,3.81
2017-01-20T05:51:18.236Z,3.81
2017-01-20T05:52:18.239Z,3.95
2017-01-20T05:53:18.254Z,3.8
2017-01-20T05:54:18.264Z,3.77
2017-01-20T05:55:18.270Z,3.77
2017-01-20T05:56:18.429Z,3.81
2017-01-20T05:57:18.323Z,3.8
2017-01-20T05:58:18.305Z,3.84
2017-01-20T05:59:18.317Z,3.87
2017-01-20T06:00:18.321Z,3.78
2017-01-20T06:01:18.339Z,3.8
2017-01-20T06:02:18.348Z,3.83
2017-01-20T06:03:18.351Z,3.8
2017-01-20T06:04:18.361Z,3.77
2017-01-20T06:05:18.371Z,3.8
2017-01-20T06:06:18.385Z,3.95
2017-01-20T06:07:18.389Z,3.81
2017-01-20T06:08:18.408Z,3.81
2017-01-20T06:09:18.414Z,3.8
2017-01-20T06:10:18.422Z,3.86
2017-01-20T06:11:18.436Z,3.78
2017-01-20T06:12:18.441Z,3.76
2017-01-20T06:13:18.449Z,3.81
2017-01-20T06:14:18.460Z,3.77
2017-01-20T06:15:18.471Z,3.78
2017-01-20T06:16:18.484Z,3.83
2017-01-20T06:17:18.492Z,3.87
2017-01-20T06:18:18.497Z,3.86
2017-01-20T06:19:18.514Z,3.86
2017-01-20T06:20:18.519Z,3.83
2017-01-20T06:21:18.530Z,3.83
2017-01-20T06:22:18.544Z,3.91
2017-01-20T06:23:18.553Z,3.8
2017-01-20T06:24:18.553Z,3.84
2017-01-20T06:25:18.566Z,3.81
2017-01-20T06:26:18.580Z,3.84
2017-01-20T06:27:18.590Z,3.91
2017-01-20T06:28:18.597Z,3.87
2017-01-20T06:29:18.619Z,3.94
2017-01-20T06:30:18.616Z,3.88
2017-01-20T06:31:18.630Z,3.83
2017-01-20T06:32:18.637Z,3.84
2017-01-20T06:33:18.643Z,3.87
2017-01-20T06:34:18.657Z,3.81
2017-01-20T06:35:18.668Z,3.86
2017-01-20T06:36:18.678Z,3.95
2017-01-20T06:37:18.697Z,3.81
2017-01-20T06:38:18.697Z,3.87
2017-01-20T06:39:18.702Z,3.87
2017-01-20T06:40:18.719Z,3.92
2017-01-20T06:41:18.732Z,3.88
2017-01-20T06:42:18.744Z,3.84
2017-01-20T06:43:18.749Z,3.86
2017-01-20T06:44:18.763Z,3.92
2017-01-20T06:45:18.769Z,3.96
2017-01-20T06:46:18.776Z,3.92
2017-01-20T06:47:18.784Z,3.87
2017-01-20T06:48:18.791Z,3.94
2017-01-20T06:49:18.807Z,3.88
2017-01-20T06:50:18.820Z,3.94
2017-01-20T06:51:18.823Z,3.83
2017-01-20T06:52:18.835Z,3.98
2017-01-20T06:53:18.849Z,3.96
2017-01-20T06:54:18.851Z,4.01
2017-01-20T06:55:18.866Z,3.99
2017-01-20T06:56:18.874Z,3.99
2017-01-20T06:57:18.889Z,3.96
2017-01-20T06:58:18.895Z,3.98
2017-01-20T06:59:18.904Z,3.94
2017-01-20T07:00:18.925Z,3.95
2017-01-20T07:01:18.931Z,4.01
2017-01-20T07:02:18.933Z,3.96
2017-01-20T07:03:18.946Z,4.02
2017-01-20T07:04:18.973Z,4.01
2017-01-20T07:05:18.962Z,3.94
2017-01-20T07:06:18.979Z,3.98
2017-01-20T07:07:18.987Z,3.99
2017-01-20T07:08:19.392Z,4.01
2017-01-20T07:09:19.019Z,4.02
2017-01-20T07:10:19.014Z,4.04
2017-01-20T07:11:19.028Z,4.05
2017-01-20T07:12:19.043Z,4.04
2017-01-20T07:13:19.050Z,4.05
2017-01-20T07:14:19.152Z,4.05
2017-01-20T07:15:19.065Z,4.05
2017-01-20T07:16:19.071Z,3.96
2017-01-20T07:17:19.086Z,3.96
2017-01-20T07:18:19.097Z,3.98
2017-01-20T07:19:19.109Z,3.99
2017-01-20T07:20:19.514Z,4.08
2017-01-20T07:21:19.125Z,4.06
2017-01-20T07:22:19.143Z,3.99
2017-01-20T07:23:19.142Z,4.06
2017-01-20T07:24:19.154Z,4.1
2017-01-20T07:25:19.172Z,4.14
2017-01-20T07:26:19.180Z,4.04
2017-01-20T07:27:19.186Z,4.08
2017-01-20T07:28:19.196Z,4.08
2017-01-20T07:29:19.209Z,4.14
2017-01-20T07:30:19.214Z,4.13
2017-01-20T07:31:19.222Z,4.12
2017-01-20T07:32:19.255Z,4.14
2017-01-20T07:33:19.240Z,4.14
2017-01-20T07:34:19.250Z,4.16
2017-01-20T07:35:19.266Z,4.19
2017-01-20T07:36:19.279Z,4.16
2017-01-20T07:37:19.286Z,4.17
2017-01-20T07:38:19.291Z,4.16
2017-01-20T07:39:19.306Z,4.24
2017-01-20T07:40:19.323Z,4.24
2017-01-20T07:41:19.925Z,4.22
2017-01-20T07:42:19.335Z,4.22
2017-01-20T07:43:19.354Z,4.23
2017-01-20T07:44:19.355Z,4.23
2017-01-20T07:45:19.364Z,4.12
2017-01-20T07:46:19.376Z,4.19
2017-01-20T07:47:19.387Z,4.08
2017-01-20T07:48:19.400Z,4.23
2017-01-20T07:49:19.408Z,4.16
2017-01-20T07:50:19.417Z,4.22
2017-01-20T07:51:19.429Z,4.23
2017-01-20T07:52:19.435Z,4.24
2017-01-20T07:53:19.451Z,4.13
2017-01-20T07:54:19.466Z,4.2
2017-01-20T07:55:19.472Z,4.2
2017-01-20T07:56:19.479Z,4.24
2017-01-20T07:57:19.483Z,4.23
2017-01-20T07:58:19.505Z,4.22
2017-01-20T07:59:19.510Z,4.23
2017-01-20T08:00:19.524Z,4.22
2017-01-20T08:01:19.525Z,4.19
2017-01-20T08:02:19.534Z,4.28
2017-01-20T08:03:19.544Z,4.22
2017-01-20T08:04:19.559Z,4.28
2017-01-20T08:05:19.570Z,4.28
2017-01-20T08:06:19.578Z,4.28
2017-01-20T08:07:19.585Z,4.32
2017-01-20T08:08:19.596Z,4.28
2017-01-20T08:09:19.615Z,4.26
2017-01-20T08:10:19.621Z,4.34
2017-01-20T08:11:19.623Z,4.28
2017-01-20T08:12:19.639Z,4.31
2017-01-20T08:13:19.651Z,4.3
2017-01-20T08:14:19.657Z,4.32
2017-01-20T08:15:19.668Z,4.31
2017-01-20T08:16:19.678Z,4.28
2017-01-20T08:17:19.694Z,4.32
2017-01-20T08:18:19.697Z,4.26
2017-01-20T08:19:19.707Z,4.3
2017-01-20T08:20:19.735Z,4.31
2017-01-20T08:21:19.730Z,4.35
2017-01-20T08:22:19.739Z,4.37
2017-01-20T08:23:19.752Z,4.37
2017-01-20T08:24:19.763Z,4.34
2017-01-20T08:25:19.770Z,4.41
2017-01-20T08:26:19.777Z,4.41
2017-01-20T08:27:19.787Z,4.37
2017-01-20T08:28:19.798Z,4.37
2017-01-20T08:29:19.806Z,4.38
2017-01-20T08:30:19.818Z,4.45
2017-01-20T08:31:19.833Z,4.42
2017-01-20T08:32:19.836Z,4.44
2017-01-20T08:33:19.853Z,4.49
2017-01-20T08:34:19.863Z,4.49
2017-01-20T08:35:19.878Z,4.49
2017-01-20T08:36:19.873Z,4.5
2017-01-20T08:37:19.887Z,4.48
2017-01-20T08:38:19.899Z,4.5
2017-01-20T08:39:19.915Z,4.49
2017-01-20T08:40:19.918Z,4.55
2017-01-20T08:41:19.932Z,4.59
2017-01-20T08:42:19.941Z,4.62
2017-01-20T08:43:19.964Z,4.56
2017-01-20T08:44:19.957Z,4.56
2017-01-20T08:45:19.965Z,4.6
2017-01-20T08:46:19.984Z,4.62
2017-01-20T08:47:19.998Z,4.59
2017-01-20T08:48:20.000Z,4.59
2017-01-20T08:49:20.017Z,4.67
2017-01-20T08:50:20.026Z,4.67
2017-01-20T08:51:20.030Z,4.67
2017-01-20T08:52:20.053Z,4.67
2017-01-20T08:53:20.051Z,4.63
2017-01-20T08:54:20.064Z,4.66
2017-01-20T08:55:20.072Z,4.74
2017-01-20T08:56:20.084Z,4.74
2017-01-20T08:57:20.097Z,4.7
2017-01-20T08:58:20.106Z,4.7
2017-01-20T08:59:20.109Z,4.7
2017-01-20T09:00:20.135Z,4.71
2017-01-20T09:01:20.134Z,4.73
2017-01-20T09:02:20.145Z,4.66
2017-01-20T09:03:20.153Z,4.68
2017-01-20T09:04:20.173Z,4.8
2017-01-20T09:05:20.176Z,4.68
2017-01-20T09:06:20.188Z,4.8
2017-01-20T09:07:20.198Z,4.82
2017-01-20T09:08:20.208Z,4.86
2017-01-20T09:09:20.228Z,4.86
2017-01-20T09:10:20.229Z,4.9
2017-01-20T09:11:20.237Z,4.8
2017-01-20T09:12:20.248Z,4.92
2017-01-20T09:13:20.258Z,4.82
2017-01-20T09:14:20.270Z,4.75
2017-01-20T09:15:20.291Z,4.86
2017-01-20T09:16:20.291Z,4.94
2017-01-20T09:17:20.301Z,4.89
2017-01-20T09:18:20.326Z,4.93
2017-01-20T09:19:20.325Z,4.94
2017-01-20T09:20:20.335Z,4.96
2017-01-20T09:21:20.347Z,4.93
2017-01-20T09:22:20.362Z,4.86
2017-01-20T09:23:20.368Z,5.05
2017-01-20T09:24:20.390Z,5.02
2017-01-20T09:25:20.396Z,5.02
2017-01-20T09:26:20.398Z,5
2017-01-20T09:27:20.461Z,5.04
2017-01-20T09:28:20.432Z,5
2017-01-20T09:29:20.430Z,5
2017-01-20T09:30:20.443Z,4.99
2017-01-20T09:31:20.458Z,5.05
2017-01-20T09:32:20.459Z,5.02
2017-01-20T09:33:20.487Z,5.1
2017-01-20T09:34:20.485Z,5.08
2017-01-20T09:35:20.500Z,5.08
2017-01-20T09:36:20.509Z,5.07
2017-01-20T09:37:20.514Z,5.14
2017-01-20T09:38:20.525Z,5.08
2017-01-20T09:39:20.539Z,5.14
2017-01-20T09:40:20.569Z,5.14
2017-01-20T09:41:20.566Z,5.12
2017-01-20T09:42:20.576Z,5.07
2017-01-20T09:43:20.584Z,5.08
2017-01-20T09:44:20.597Z,5.18
2017-01-20T09:45:20.618Z,5.1
2017-01-20T09:46:20.610Z,5.11
2017-01-20T09:47:20.628Z,5.11
2017-01-20T09:48:20.642Z,5.15
2017-01-20T09:49:21.043Z,5.25
2017-01-20T09:50:20.660Z,5.2
2017-01-20T09:51:21.070Z,5.23
2017-01-20T09:52:20.678Z,5.15
2017-01-20T09:53:20.689Z,5.23
2017-01-20T09:54:20.711Z,5.17
2017-01-20T09:55:20.712Z,5.21
2017-01-20T09:56:20.735Z,5.21
2017-01-20T09:57:20.730Z,5.21
2017-01-20T09:58:20.749Z,5.23
2017-01-20T09:59:20.754Z,5.25
2017-01-20T10:00:20.767Z,5.21
2017-01-20T10:01:20.804Z,5.2
2017-01-20T10:02:20.787Z,5.15
2017-01-20T10:03:20.795Z,5.25
2017-01-20T10:04:20.810Z,5.26
2017-01-20T10:05:20.851Z,5.25
2017-01-20T10:06:20.836Z,5.25
2017-01-20T10:07:20.846Z,5.25
2017-01-20T10:08:20.857Z,5.23
2017-01-20T10:09:20.862Z,5.25
2017-01-20T10:10:20.898Z,5.2
2017-01-20T10:11:20.888Z,5.29
2017-01-20T10:12:20.911Z,5.26
2017-01-20T10:13:20.912Z,5.26
2017-01-20T10:14:20.915Z,5.32
2017-01-20T10:15:20.934Z,5.35
2017-01-20T10:16:20.945Z,5.35
2017-01-20T10:17:20.965Z,5.29
2017-01-20T10:18:20.970Z,5.33
2017-01-20T10:19:20.972Z,5.35
2017-01-20T10:20:20.984Z,5.35
2017-01-20T10:21:21.000Z,5.32
2017-01-20T10:22:21.003Z,5.48
2017-01-20T10:23:21.067Z,5.33
2017-01-20T10:24:21.036Z,5.32
2017-01-20T10:25:21.047Z,5.3
2017-01-20T10:26:21.052Z,5.3
2017-01-20T10:27:21.061Z,5.26
2017-01-20T10:28:21.072Z,5.38
2017-01-20T10:29:21.087Z,5.35
2017-01-20T10:30:21.094Z,5.35
2017-01-20T10:31:21.106Z,5.43
2017-01-20T10:32:21.119Z,5.43
2017-01-20T10:33:21.137Z,5.44
2017-01-20T10:34:21.139Z,5.46
2017-01-20T10:35:21.151Z,5.44
2017-01-20T10:36:21.156Z,5.46
2017-01-20T10:37:21.178Z,5.5
2017-01-20T10:38:21.185Z,5.47
2017-01-20T10:39:21.197Z,5.46
2017-01-20T10:40:21.205Z,5.53
2017-01-20T10:41:21.217Z,5.51
2017-01-20T10:42:21.229Z,5.48
2017-01-20T10:43:21.240Z,5.5
2017-01-20T10:44:21.251Z,5.5
2017-01-20T10:45:21.260Z,5.51
2017-01-20T10:46:21.281Z,5.5
2017-01-20T10:47:21.285Z,5.57
2017-01-20T10:48:21.298Z,5.59
2017-01-20T10:49:21.307Z,5.56
2017-01-20T10:50:21.318Z,5.5
2017-01-20T10:51:21.329Z,5.53
2017-01-20T10:52:21.343Z,5.56
2017-01-20T10:53:21.353Z,5.53
2017-01-20T10:54:21.360Z,5.59
2017-01-20T10:55:21.376Z,5.56
2017-01-20T10:56:21.391Z,5.62
2017-01-20T10:57:21.395Z,5.62
2017-01-20T10:58:21.405Z,5.57
2017-01-20T10:59:21.419Z,5.64
2017-01-20T11:00:21.445Z,5.61
2017-01-20T11:01:21.439Z,5.68
2017-01-20T11:02:21.450Z,5.65
2017-01-20T11:03:21.479Z,5.68
2017-01-20T11:04:21.476Z,5.68
2017-01-20T11:05:21.487Z,5.68
2017-01-20T11:06:21.501Z,5.68
2017-01-20T11:07:21.509Z,5.64
2017-01-20T11:08:21.526Z,5.69
2017-01-20T11:09:21.538Z,5.75
2017-01-20T11:10:21.546Z,5.79
2017-01-20T11:11:21.554Z,5.76
2017-01-20T11:12:21.570Z,5.73
2017-01-20T11:13:21.584Z,5.72
2017-01-20T11:14:21.589Z,5.82
2017-01-20T11:15:21.601Z,5.73
2017-01-20T11:16:21.617Z,5.73
2017-01-20T11:17:21.623Z,5.75
2017-01-20T11:18:21.642Z,5.75
2017-01-20T11:19:21.652Z,5.82
2017-01-20T11:20:21.658Z,5.73
2017-01-20T11:21:21.671Z,5.79
2017-01-20T11:22:21.683Z,5.8
2017-01-20T11:23:21.693Z,5.76
2017-01-20T11:24:21.705Z,5.76
2017-01-20T11:25:21.721Z,5.8
2017-01-20T11:26:21.737Z,5.84
2017-01-20T11:27:21.741Z,5.84
2017-01-20T11:28:21.753Z,5.8
2017-01-20T11:29:21.762Z,5.83
2017-01-20T11:30:21.773Z,5.82
2017-01-20T11:31:21.784Z,5.82
2017-01-20T11:32:21.798Z,5.87
2017-01-20T11:33:21.806Z,5.9
2017-01-20T11:34:21.829Z,5.86
2017-01-20T11:35:21.829Z,5.87
2017-01-20T11:36:21.844Z,5.9
2017-01-20T11:37:21.857Z,5.86
2017-01-20T11:38:21.866Z,5.98
2017-01-20T11:39:21.880Z,6.01
2017-01-20T11:40:21.890Z,5.91
2017-01-20T11:41:21.905Z,5.97
2017-01-20T11:42:21.914Z,5.93
2017-01-20T11:43:21.920Z,5.87
2017-01-20T11:44:21.932Z,5.93
2017-01-20T11:45:21.944Z,5.97
2017-01-20T11:46:21.958Z,5.91
2017-01-20T11:47:21.982Z,5.93
2017-01-20T11:48:21.981Z,5.93
2017-01-20T11:49:21.994Z,5.93
2017-01-20T11:50:22.002Z,5.94
2017-01-20T11:51:22.018Z,6.01
2017-01-20T11:52:22.026Z,5.94
2017-01-20T11:53:22.038Z,5.91
2017-01-20T11:54:22.047Z,5.99
2017-01-20T11:55:22.062Z,5.91
2017-01-20T11:56:22.074Z,5.91
2017-01-20T11:57:22.083Z,5.89
2017-01-20T11:58:22.098Z,5.99
2017-01-20T11:59:22.106Z,5.98
2017-01-20T12:00:22.118Z,6.02
2017-01-20T12:01:22.131Z,5.98
2017-01-20T12:02:22.142Z,6.02
2017-01-20T12:03:22.150Z,6.01
2017-01-20T12:04:22.165Z,6.04
2017-01-20T12:05:22.180Z,6.04
2017-01-20T12:06:22.189Z,6.05
2017-01-20T12:07:22.202Z,6.09
2017-01-20T12:08:22.214Z,6.12
2017-01-20T12:09:22.224Z,6.2
2017-01-20T12:10:22.234Z,6.12
2017-01-20T12:11:22.251Z,6.12
2017-01-20T12:12:22.262Z,6.24
2017-01-20T12:13:22.269Z,6.19
2017-01-20T12:14:22.284Z,6.26
2017-01-20T12:15:22.294Z,6.27
2017-01-20T12:16:22.307Z,6.28
2017-01-20T12:17:22.387Z,6.24
2017-01-20T12:18:22.332Z,6.24
2017-01-20T12:19:22.346Z,6.24
2017-01-20T12:20:22.358Z,6.35
2017-01-20T12:21:22.372Z,6.31
2017-01-20T12:22:22.382Z,6.27
2017-01-20T12:23:22.386Z,6.27
2017-01-20T12:24:22.396Z,6.3
2017-01-20T12:25:22.411Z,6.3
2017-01-20T12:26:22.426Z,6.3
2017-01-20T12:27:22.434Z,6.39
2017-01-20T12:28:22.449Z,6.36
2017-01-20T12:29:22.459Z,6.38
2017-01-20T12:30:22.464Z,6.36
2017-01-20T12:31:22.484Z,6.31
2017-01-20T12:32:22.494Z,6.33
2017-01-20T12:33:22.498Z,6.33
2017-01-20T12:34:22.516Z,6.38
2017-01-20T12:35:22.523Z,6.38
2017-01-20T12:36:22.542Z,6.33
2017-01-20T12:37:22.555Z,6.36
2017-01-20T12:38:22.565Z,6.36
2017-01-20T12:39:22.579Z,6.36
2017-01-20T12:40:22.594Z,6.36
2017-01-20T12:41:22.607Z,6.31
2017-01-20T12:42:22.605Z,6.33
2017-01-20T12:43:22.620Z,6.42
2017-01-20T12:44:22.633Z,6.46
2017-01-20T12:45:22.646Z,6.46
2017-01-20T12:46:22.668Z,6.46
2017-01-20T12:47:22.671Z,6.41
2017-01-20T12:48:22.685Z,6.31
2017-01-20T12:49:22.693Z,6.49
2017-01-20T12:50:22.712Z,6.45
2017-01-20T12:51:22.720Z,6.46
2017-01-20T12:52:22.739Z,6.52
2017-01-20T12:53:22.748Z,6.52
2017-01-20T12:54:22.752Z,6.49
2017-01-20T12:55:22.775Z,6.48
2017-01-20T12:56:22.783Z,6.51
2017-01-20T12:57:22.793Z,6.62
2017-01-20T12:58:22.808Z,6.45
2017-01-20T12:59:22.820Z,6.57
2017-01-20T13:00:22.821Z,6.56
2017-01-20T13:01:22.836Z,6.56
2017-01-20T13:02:22.847Z,6.56
2017-01-20T13:03:22.863Z,6.51
2017-01-20T13:04:22.874Z,6.56
2017-01-20T13:05:22.887Z,6.56
2017-01-20T13:06:22.901Z,6.62
2017-01-20T13:07:22.910Z,6.56
2017-01-20T13:08:22.919Z,6.59
2017-01-20T13:09:22.934Z,6.56
2017-01-20T13:10:22.948Z,6.57
2017-01-20T13:11:22.955Z,6.52
2017-01-20T13:12:22.965Z,6.51
2017-01-20T13:13:22.984Z,6.54
2017-01-20T13:14:22.992Z,6.48
2017-01-20T13:15:23.002Z,6.49
2017-01-20T13:16:23.042Z,6.57
2017-01-20T13:17:23.029Z,6.57
2017-01-20T13:18:23.045Z,6.57
2017-01-20T13:19:23.051Z,6.57
2017-01-20T13:20:23.067Z,6.57
2017-01-20T13:21:23.073Z,6.59
2017-01-20T13:22:23.083Z,6.57